Time;durP1;ratioP1;P1;durP2;ratioP2;P2;SDS_P1;SDS_P2;PMS_P1;PMS_P2;Temp;Humidity;BMP_temperature;BMP_pressure;BME280_temperature;BME280_humidity;BME280_pressure;Samples;Min_cycle;Max_cycle;Signal;HPM_P1;HPM_P2
2022/12/09 02:59:38;;;;;;;71.60;25.17;;;-1.20;99.90;;;;;;5584943;22;20712;-65
2022/12/09 03:02:15;;;;;;;317.20;40.27;;;-1.20;99.90;;;;;;5067509;28;20648;-65
2022/12/09 03:04:46;;;;;;;83.30;27.20;;;-1.10;99.90;;;;;;5067846;28;20644;-66
2022/12/09 03:07:21;;;;;;;84.77;27.07;;;-1.00;99.90;;;;;;5066477;28;20226;-65
2022/12/09 03:09:56;;;;;;;77.40;24.90;;;-0.90;99.90;;;;;;5059817;28;20232;-65
2022/12/09 03:12:30;;;;;;;78.40;25.57;;;-0.80;99.90;;;;;;5048177;28;20204;-65
2022/12/09 03:15:01;;;;;;;69.50;25.07;;;-0.60;99.90;;;;;;5047280;28;20220;-65
2022/12/09 03:17:32;;;;;;;86.90;25.90;;;-0.50;99.90;;;;;;5048146;28;20551;-66
2022/12/09 03:20:03;;;;;;;129.73;25.80;;;-0.50;99.90;;;;;;5047951;28;20305;-65
2022/12/09 03:22:34;;;;;;;87.80;24.17;;;-0.40;99.90;;;;;;5048109;28;20197;-64
2022/12/09 03:25:06;;;;;;;94.00;25.10;;;-0.40;99.90;;;;;;5047587;28;20349;-64
2022/12/09 03:27:37;;;;;;;54.07;22.60;;;-0.30;99.90;;;;;;5047988;28;20535;-65
2022/12/09 03:30:09;;;;;;;59.90;22.37;;;-0.20;99.90;;;;;;5047023;28;20229;-65
2022/12/09 03:32:38;;;;;;;100.67;23.17;;;-0.20;99.90;;;;;;5048190;28;20194;-66
2022/12/09 03:35:10;;;;;;;81.90;23.17;;;-0.20;99.90;;;;;;5047946;28;20584;-65
2022/12/09 03:37:39;;;;;;;189.03;30.30;;;-0.20;99.90;;;;;;5047944;28;20572;-64
2022/12/09 03:40:11;;;;;;;165.10;28.33;;;-0.20;99.90;;;;;;5046882;28;20202;-64
2022/12/09 03:42:44;;;;;;;65.40;22.00;;;-0.20;99.90;;;;;;5047117;28;20201;-64
2022/12/09 03:45:13;;;;;;;103.83;26.03;;;-0.10;99.90;;;;;;5047249;28;20197;-64
2022/12/09 03:47:40;;;;;;;59.00;24.73;;;-0.10;99.90;;;;;;5047474;28;20213;-65
2022/12/09 03:50:08;;;;;;;72.20;25.97;;;-0.20;99.90;;;;;;5047485;28;20570;-65
2022/12/09 03:52:39;;;;;;;81.17;27.17;;;-0.10;99.90;;;;;;5046242;28;20301;-65
2022/12/09 03:55:13;;;;;;;58.63;25.83;;;-0.10;99.90;;;;;;5047460;28;20228;-65
2022/12/09 03:57:43;;;;;;;93.27;30.77;;;0.00;99.90;;;;;;5047492;28;20196;-65
2022/12/09 04:00:12;;;;;;;84.83;29.17;;;-0.10;99.90;;;;;;5046973;28;20229;-65
2022/12/09 04:02:38;;;;;;;360.70;44.50;;;-0.10;99.90;;;;;;5046854;28;20207;-64
2022/12/09 04:05:06;;;;;;;234.33;37.20;;;-0.10;99.90;;;;;;5047139;28;20221;-64
2022/12/09 04:07:33;;;;;;;157.43;33.13;;;-0.20;99.90;;;;;;5047244;28;20212;-66
2022/12/09 04:10:00;;;;;;;156.30;33.40;;;-0.20;99.90;;;;;;5039085;28;20229;-65
2022/12/09 04:12:26;;;;;;;78.13;27.23;;;-0.20;99.90;;;;;;5032998;28;20206;-66
2022/12/09 04:14:53;;;;;;;111.77;28.57;;;-0.20;99.90;;;;;;5033879;28;20217;-65
2022/12/09 04:17:21;;;;;;;70.73;31.27;;;-0.20;99.90;;;;;;5033654;28;20335;-64
2022/12/09 04:19:48;;;;;;;73.70;31.97;;;-0.20;99.90;;;;;;5033756;28;20557;-64
2022/12/09 04:22:15;;;;;;;84.23;27.63;;;-0.20;99.90;;;;;;5033002;28;20224;-65
2022/12/09 04:24:42;;;;;;;252.17;35.37;;;-0.10;99.90;;;;;;5031987;28;20212;-65
2022/12/09 04:27:10;;;;;;;115.60;27.33;;;-0.20;99.90;;;;;;5033674;28;20212;-66
2022/12/09 04:29:38;;;;;;;59.03;22.50;;;-0.20;99.90;;;;;;5033266;28;20213;-65
2022/12/09 04:32:05;;;;;;;54.20;22.17;;;-0.20;99.90;;;;;;5033552;28;20264;-68
2022/12/09 04:34:34;;;;;;;59.47;23.23;;;-0.20;99.90;;;;;;5033308;28;20222;-66
2022/12/09 04:37:01;;;;;;;130.73;49.77;;;-0.20;99.90;;;;;;5033446;28;20213;-68
2022/12/09 04:39:27;;;;;;;70.87;25.23;;;-0.10;99.90;;;;;;5033595;28;20233;-67
2022/12/09 04:41:54;;;;;;;64.27;23.13;;;-0.20;99.90;;;;;;5033463;28;20205;-66
2022/12/09 04:44:21;;;;;;;107.20;26.33;;;-0.20;99.90;;;;;;5032665;28;20206;-65
2022/12/09 04:46:48;;;;;;;58.37;22.33;;;-0.20;99.90;;;;;;5033666;28;20202;-65
2022/12/09 04:49:14;;;;;;;56.90;21.43;;;-0.30;99.90;;;;;;5033372;28;20213;-65
2022/12/09 04:51:43;;;;;;;74.90;23.80;;;-0.20;99.90;;;;;;5033645;28;20654;-65
2022/12/09 04:54:12;;;;;;;78.63;23.50;;;-0.20;99.90;;;;;;5032747;28;20209;-67
2022/12/09 04:56:39;;;;;;;92.47;25.83;;;-0.30;99.90;;;;;;5033576;28;20206;-65
2022/12/09 04:59:06;;;;;;;61.43;22.70;;;-0.30;99.90;;;;;;5033390;28;20222;-66
2022/12/09 05:01:33;;;;;;;61.70;23.83;;;-0.30;99.90;;;;;;5033429;28;20215;-66
2022/12/09 05:03:59;;;;;;;60.43;24.37;;;-0.30;99.90;;;;;;5030237;28;20638;-65
2022/12/09 05:06:26;;;;;;;148.57;32.43;;;-0.20;99.90;;;;;;5033474;28;20202;-66
2022/12/09 05:08:55;;;;;;;56.40;24.77;;;-0.30;99.90;;;;;;5033060;28;20226;-65
2022/12/09 05:11:22;;;;;;;52.23;24.43;;;-0.30;99.90;;;;;;5033316;28;20209;-65
2022/12/09 05:13:49;;;;;;;61.13;26.77;;;-0.30;99.90;;;;;;5032594;28;20260;-69
2022/12/09 05:16:18;;;;;;;54.43;23.87;;;-0.40;99.90;;;;;;5032598;28;20226;-65
2022/12/09 05:18:46;;;;;;;55.97;22.70;;;-0.40;99.90;;;;;;5033017;28;20226;-66
2022/12/09 05:21:14;;;;;;;50.80;22.80;;;-0.50;99.90;;;;;;5031716;28;20224;-67
2022/12/09 05:23:42;;;;;;;42.97;19.80;;;-0.50;99.90;;;;;;5029632;28;20220;-65
2022/12/09 05:26:13;;;;;;;45.50;21.80;;;-0.50;99.90;;;;;;5030569;28;20217;-65
2022/12/09 05:28:40;;;;;;;47.93;21.13;;;-0.50;99.90;;;;;;5026955;28;20198;-65
2022/12/09 05:31:10;;;;;;;50.07;22.23;;;-0.50;99.90;;;;;;5028885;28;20588;-66
2022/12/09 05:33:37;;;;;;;56.40;23.83;;;-0.50;99.90;;;;;;5032804;28;20201;-66
2022/12/09 05:36:08;;;;;;;43.70;22.17;;;-0.50;99.90;;;;;;5032250;28;20214;-65
2022/12/09 05:38:35;;;;;;;42.57;22.27;;;-0.60;99.90;;;;;;5032751;28;20569;-65
2022/12/09 05:41:02;;;;;;;55.70;25.57;;;-0.60;99.90;;;;;;5031786;28;20206;-65
2022/12/09 05:43:31;;;;;;;49.37;24.73;;;-0.50;99.90;;;;;;5032326;28;20209;-65
2022/12/09 05:45:58;;;;;;;56.23;26.37;;;-0.60;99.90;;;;;;5032290;28;20686;-65
2022/12/09 05:48:24;;;;;;;67.37;27.80;;;-0.60;99.90;;;;;;5032059;28;20202;-64
2022/12/09 05:50:57;;;;;;;60.77;28.80;;;-0.60;99.90;;;;;;5025508;28;20852;-65
2022/12/09 05:53:24;;;;;;;63.47;29.97;;;-0.60;99.90;;;;;;5026805;28;20260;-65
2022/12/09 05:55:51;;;;;;;59.00;29.93;;;-0.60;99.90;;;;;;5031091;28;20573;-67
2022/12/09 05:58:18;;;;;;;49.60;24.90;;;-0.60;99.90;;;;;;5032186;28;20317;-68
2022/12/09 06:00:46;;;;;;;41.47;21.47;;;-0.60;99.90;;;;;;5032212;28;20263;-69
2022/12/09 06:03:13;;;;;;;33.90;18.50;;;-0.50;99.90;;;;;;5031510;28;20583;-67
2022/12/09 06:05:41;;;;;;;51.67;32.80;;;-0.50;99.90;;;;;;5032413;28;20667;-67
2022/12/09 06:08:08;;;;;;;24.73;15.03;;;-0.40;99.90;;;;;;5031960;28;20216;-66
2022/12/09 06:10:38;;;;;;;20.87;12.87;;;-0.40;99.90;;;;;;5032363;28;20666;-67
2022/12/09 10:34:51;;;;;;;54.90;30.80;;;1.00;99.90;;;;;;5595757;22;20623;-65
2022/12/09 10:37:26;;;;;;;56.57;31.80;;;0.90;99.90;;;;;;5072701;28;20205;-65
2022/12/09 10:39:58;;;;;;;51.70;30.03;;;1.00;99.90;;;;;;5060565;28;20262;-64
2022/12/09 10:45:13;;;;;;;62.30;33.67;;;1.20;99.90;;;;;;5068163;28;20339;-66
2022/12/09 10:47:40;;;;;;;57.37;33.27;;;1.20;99.90;;;;;;5065758;28;20217;-66
2022/12/09 10:50:25;;;;;;;60.77;34.73;;;1.30;99.90;;;;;;5061571;28;20291;-65
2022/12/09 10:52:52;;;;;;;65.40;35.70;;;1.40;99.90;;;;;;5061812;28;20209;-65
2022/12/09 10:55:29;;;;;;;63.00;35.43;;;1.50;99.90;;;;;;5056590;28;20224;-64
2022/12/09 10:58:10;;;;;;;61.20;34.43;;;1.50;99.90;;;;;;5069052;28;20571;-64
2022/12/09 11:00:37;;;;;;;72.50;37.17;;;1.60;99.90;;;;;;5061314;28;20197;-64
2022/12/09 11:03:04;;;;;;;68.90;35.13;;;1.60;99.90;;;;;;5068951;28;20200;-65
2022/12/09 11:05:33;;;;;;;70.77;35.80;;;1.60;99.90;;;;;;5068819;28;20726;-66
2022/12/09 11:08:00;;;;;;;68.17;36.30;;;1.70;99.90;;;;;;5061691;28;20206;-64
2022/12/09 11:10:28;;;;;;;66.40;34.90;;;1.70;99.90;;;;;;5066060;28;20201;-64
2022/12/09 11:13:01;;;;;;;66.40;35.27;;;1.70;99.90;;;;;;5068410;28;20332;-64
2022/12/09 11:15:34;;;;;;;64.73;33.30;;;1.60;99.90;;;;;;5067833;28;20189;-64
2022/12/09 11:18:06;;;;;;;67.13;33.60;;;1.60;99.90;;;;;;5068523;28;20235;-64
2022/12/09 11:20:35;;;;;;;62.13;33.07;;;1.50;99.90;;;;;;5063499;28;20201;-64
2022/12/09 11:23:06;;;;;;;62.73;33.87;;;1.60;99.90;;;;;;5067254;28;20190;-65
2022/12/09 11:25:35;;;;;;;68.63;36.23;;;1.70;99.90;;;;;;5048008;28;20196;-66
2022/12/09 11:28:04;;;;;;;74.40;39.17;;;1.70;99.90;;;;;;5065798;28;20538;-65
2022/12/09 11:30:33;;;;;;;67.87;36.53;;;1.70;99.90;;;;;;5068185;28;20723;-64
2022/12/09 11:33:19;;;;;;;67.97;36.50;;;1.70;99.90;;;;;;5068282;28;20258;-70
2022/12/09 11:36:02;;;;;;;58.40;33.43;;;1.70;99.90;;;;;;5067484;28;20259;-64
2022/12/09 11:38:38;;;;;;;63.90;36.20;;;1.70;99.90;;;;;;5066934;28;20185;-65
2022/12/09 11:41:13;;;;;;;58.43;31.80;;;1.70;99.90;;;;;;5067064;28;20203;-66
2022/12/09 11:43:44;;;;;;;68.90;35.90;;;1.70;99.90;;;;;;5068214;28;20197;-64
2022/12/09 11:46:21;;;;;;;68.87;37.63;;;1.70;99.90;;;;;;5053063;28;20212;-65
2022/12/09 11:48:55;;;;;;;69.83;38.73;;;1.80;99.90;;;;;;5054282;28;20208;-67
2022/12/09 11:51:27;;;;;;;72.03;39.60;;;1.80;99.90;;;;;;5053147;28;20192;-65
2022/12/09 11:54:01;;;;;;;74.87;39.10;;;1.80;99.90;;;;;;5053189;28;20217;-66
2022/12/09 11:56:29;;;;;;;72.23;38.90;;;1.90;99.90;;;;;;5052677;28;20668;-65
2022/12/09 11:59:00;;;;;;;83.27;40.93;;;1.80;99.90;;;;;;5053798;28;20236;-67
2022/12/09 12:01:37;;;;;;;87.10;43.03;;;1.80;99.90;;;;;;5052919;28;20212;-65
2022/12/09 12:04:09;;;;;;;89.67;46.53;;;1.80;99.90;;;;;;5053446;28;20197;-66
2022/12/09 12:06:44;;;;;;;74.23;39.90;;;1.80;99.90;;;;;;5053268;28;20220;-66
2022/12/09 12:09:15;;;;;;;71.13;37.10;;;1.80;99.90;;;;;;5051797;28;20212;-66
2022/12/09 12:11:50;;;;;;;70.93;37.70;;;1.80;99.90;;;;;;5054638;28;20230;-65
2022/12/09 12:14:22;;;;;;;70.10;37.00;;;1.80;99.90;;;;;;5052919;28;20221;-67
2022/12/09 12:16:55;;;;;;;66.03;36.77;;;1.80;99.90;;;;;;5053021;28;20650;-65
2022/12/09 12:19:26;;;;;;;69.80;38.23;;;1.80;99.90;;;;;;5052666;28;20557;-64
2022/12/09 12:22:16;;;;;;;68.60;35.33;;;1.80;99.90;;;;;;5045024;28;20581;-65
2022/12/09 12:24:59;;;;;;;74.13;39.73;;;1.80;99.90;;;;;;5034314;28;20194;-64
2022/12/09 12:27:45;;;;;;;58.90;32.87;;;1.80;99.90;;;;;;5050662;28;20560;-65
2022/12/09 12:30:14;;;;;;;59.47;34.17;;;1.80;99.90;;;;;;5047517;28;20195;-66
2022/12/09 12:33:02;;;;;;;65.00;33.97;;;1.90;99.90;;;;;;5049655;28;20211;-64
2022/12/09 12:35:45;;;;;;;62.63;33.73;;;1.90;99.90;;;;;;5033939;28;20610;-66
2022/12/09 12:38:22;;;;;;;61.30;32.83;;;1.90;99.90;;;;;;5034700;28;20217;-65
2022/12/09 12:40:57;;;;;;;67.80;35.33;;;1.90;99.90;;;;;;5037198;28;20240;-67
2022/12/09 12:46:43;;;;;;;52.83;28.87;;;2.00;99.90;;;;;;5032286;28;20185;-66
2022/12/09 12:49:48;;;;;;;54.33;28.63;;;2.00;99.90;;;;;;5048320;28;20575;-66
2022/12/09 12:52:26;;;;;;;48.87;27.47;;;2.00;99.90;;;;;;5053545;28;20201;-68
2022/12/09 12:55:01;;;;;;;48.40;26.70;;;2.00;99.90;;;;;;5048123;28;20217;-66
2022/12/09 12:57:33;;;;;;;50.93;26.60;;;2.00;99.90;;;;;;5041110;28;20205;-66
2022/12/09 13:00:05;;;;;;;44.53;25.17;;;2.00;99.90;;;;;;5045895;28;20209;-65
2022/12/09 13:02:41;;;;;;;40.17;23.47;;;2.00;99.90;;;;;;5047965;28;20211;-65
2022/12/09 13:05:15;;;;;;;48.00;27.20;;;2.00;99.90;;;;;;5052296;28;20197;-66
2022/12/09 13:07:48;;;;;;;48.27;26.63;;;2.10;99.90;;;;;;5051960;28;20215;-66
2022/12/09 13:10:22;;;;;;;50.47;26.87;;;2.10;99.90;;;;;;5051645;28;20201;-63
2022/12/09 13:12:57;;;;;;;44.63;26.57;;;2.10;99.90;;;;;;5053075;28;20660;-65
2022/12/09 13:15:30;;;;;;;44.43;25.57;;;2.10;99.90;;;;;;5053215;28;20205;-66
2022/12/09 13:18:01;;;;;;;49.30;29.17;;;2.10;99.90;;;;;;5052002;28;20613;-67
2022/12/09 13:20:33;;;;;;;55.10;29.73;;;2.10;99.90;;;;;;5050997;28;20216;-65
2022/12/09 13:23:06;;;;;;;52.13;28.57;;;2.10;99.90;;;;;;5052400;28;20201;-65
2022/12/09 13:25:41;;;;;;;48.70;28.07;;;2.00;99.90;;;;;;5050263;28;20216;-66
2022/12/09 13:28:15;;;;;;;47.27;26.83;;;2.00;99.90;;;;;;5050433;28;20208;-66
2022/12/09 13:30:47;;;;;;;53.03;29.27;;;1.90;99.90;;;;;;5053095;28;20565;-67
2022/12/09 13:33:30;;;;;;;52.93;29.40;;;1.90;99.90;;;;;;5052870;28;20212;-66
2022/12/09 13:36:04;;;;;;;60.33;33.77;;;1.80;99.90;;;;;;5051984;28;20321;-66
2022/12/09 13:38:35;;;;;;;58.93;31.83;;;1.80;99.90;;;;;;5051903;28;20581;-65
2022/12/09 13:43:58;;;;;;;57.87;32.50;;;1.80;99.90;;;;;;5109368;27;20537;-66
2022/12/09 13:46:27;;;;;;;55.90;31.30;;;1.80;99.90;;;;;;5097295;28;20203;-64
2022/12/09 13:48:54;;;;;;;55.93;29.70;;;1.80;99.90;;;;;;5103926;28;20211;-65
2022/12/09 13:51:26;;;;;;;50.97;28.70;;;1.80;99.90;;;;;;5109790;28;20309;-65
2022/12/09 13:54:01;;;;;;;50.27;29.07;;;1.80;99.90;;;;;;5107358;28;20268;-65
2022/12/09 13:56:30;;;;;;;49.93;28.90;;;1.70;99.90;;;;;;5106431;28;20203;-66
2022/12/09 13:59:24;;;;;;;47.30;26.87;;;1.70;99.90;;;;;;5109216;28;20213;-65
2022/12/09 14:01:53;;;;;;;54.53;29.27;;;1.70;99.90;;;;;;5100781;28;20199;-65
2022/12/09 14:04:25;;;;;;;46.40;27.50;;;1.80;99.90;;;;;;5107104;28;20207;-65
2022/12/09 14:06:57;;;;;;;52.33;31.07;;;1.80;99.90;;;;;;5107470;28;20199;-64
2022/12/09 14:09:39;;;;;;;51.60;29.73;;;1.80;99.90;;;;;;5108637;28;20221;-64
2022/12/09 14:12:10;;;;;;;50.83;29.97;;;1.80;99.90;;;;;;5109247;28;20194;-65
2022/12/09 14:14:50;;;;;;;53.97;27.97;;;1.80;99.90;;;;;;5109503;28;20198;-64
2022/12/09 14:18:02;;;;;;;49.37;27.53;;;1.80;99.90;;;;;;5108138;28;20204;-64
2022/12/09 14:20:36;;;;;;;52.00;28.77;;;1.80;99.90;;;;;;5109428;28;20191;-64
2022/12/09 14:23:23;;;;;;;50.03;28.43;;;1.90;99.90;;;;;;5109109;28;20239;-66
2022/12/09 14:26:03;;;;;;;47.83;27.03;;;1.90;99.90;;;;;;5109373;28;20313;-64
2022/12/09 14:28:41;;;;;;;55.90;31.23;;;1.90;99.90;;;;;;5107988;28;20698;-65
2022/12/09 14:31:09;;;;;;;52.57;30.20;;;1.90;99.90;;;;;;5109327;28;20682;-66
2022/12/09 14:33:38;;;;;;;44.70;26.80;;;1.90;99.90;;;;;;5108990;28;20210;-67
2022/12/09 14:36:20;;;;;;;55.33;31.53;;;1.90;99.90;;;;;;5108038;28;20204;-65
2022/12/09 14:38:51;;;;;;;56.77;31.80;;;2.00;99.90;;;;;;5108830;28;20191;-64
2022/12/09 14:41:25;;;;;;;52.17;28.20;;;2.00;99.90;;;;;;5101325;28;20199;-64
2022/12/09 14:44:14;;;;;;;47.60;26.97;;;2.00;99.90;;;;;;5108705;28;20666;-62
2022/12/09 18:08:48;;;;;;;200.93;64.27;;;1.10;99.90;;;;;;5675542;22;20565;-66
2022/12/09 18:11:15;;;;;;;284.03;77.13;;;1.10;99.90;;;;;;5119533;28;20209;-67
2022/12/09 18:13:41;;;;;;;169.10;57.33;;;1.20;99.90;;;;;;5104699;28;20218;-65
2022/12/09 18:16:09;;;;;;;210.37;68.83;;;1.30;99.90;;;;;;5109486;28;20582;-66
2022/12/09 18:18:36;;;;;;;155.23;57.37;;;1.40;99.90;;;;;;5089255;28;20569;-67
2022/12/09 18:21:04;;;;;;;168.63;60.93;;;1.50;99.90;;;;;;5100913;28;20243;-66
2022/12/09 18:23:31;;;;;;;184.93;63.20;;;1.50;99.90;;;;;;5108001;28;20218;-66
2022/12/09 18:25:59;;;;;;;176.10;61.17;;;1.60;99.90;;;;;;5098545;28;20441;-65
2022/12/09 18:28:27;;;;;;;165.83;58.00;;;1.70;99.90;;;;;;5105098;28;20242;-66
2022/12/09 18:30:54;;;;;;;176.80;59.20;;;1.80;99.90;;;;;;5107814;28;20615;-66
2022/12/09 18:33:21;;;;;;;170.67;59.70;;;1.80;99.90;;;;;;5120565;28;20199;-66
2022/12/09 18:35:48;;;;;;;190.83;60.50;;;1.90;99.90;;;;;;5109457;28;20218;-67
2022/12/09 18:38:15;;;;;;;169.93;57.53;;;1.90;99.90;;;;;;5122393;28;20202;-66
2022/12/09 18:40:59;;;;;;;242.37;67.07;;;2.00;99.90;;;;;;5117746;28;20206;-66
2022/12/09 18:43:29;;;;;;;203.37;64.83;;;2.00;99.90;;;;;;5103185;28;20272;-66
2022/12/09 18:45:55;;;;;;;178.70;70.40;;;2.10;99.90;;;;;;5097569;28;20216;-65
2022/12/09 18:48:22;;;;;;;226.40;79.93;;;2.10;99.90;;;;;;5109024;28;20211;-66
2022/12/09 18:50:49;;;;;;;295.47;85.97;;;2.20;99.90;;;;;;5113679;28;20290;-65
2022/12/09 18:53:16;;;;;;;171.03;62.53;;;2.20;99.90;;;;;;5127770;28;20738;-68
2022/12/09 18:55:43;;;;;;;163.57;58.70;;;2.30;99.90;;;;;;5107954;28;20577;-66
2022/12/09 18:58:10;;;;;;;292.20;105.43;;;2.30;99.90;;;;;;5104454;28;20210;-65
2022/12/09 19:00:38;;;;;;;471.97;99.33;;;2.30;99.90;;;;;;5094467;28;20562;-66
2022/12/09 19:03:05;;;;;;;506.30;90.13;;;2.30;99.90;;;;;;5125522;28;20202;-67
2022/12/09 19:05:36;;;;;;;264.40;68.00;;;2.30;99.90;;;;;;5122127;28;20210;-65
2022/12/09 19:08:04;;;;;;;280.47;69.93;;;2.30;99.90;;;;;;5123762;28;20214;-67
2022/12/09 19:10:30;;;;;;;216.77;64.70;;;2.30;99.90;;;;;;5118321;28;20237;-66
2022/12/09 19:12:57;;;;;;;381.43;76.37;;;2.30;99.90;;;;;;5124377;28;20207;-66
2022/12/09 19:15:24;;;;;;;265.97;69.40;;;2.30;99.90;;;;;;5117262;28;20200;-66
2022/12/09 19:17:52;;;;;;;546.63;86.17;;;2.30;99.90;;;;;;5107023;28;20199;-66
2022/12/09 19:20:19;;;;;;;417.37;71.67;;;2.30;99.90;;;;;;5092089;28;20226;-67
2022/12/09 19:22:46;;;;;;;407.60;71.10;;;2.30;99.90;;;;;;5094624;28;20215;-67
2022/12/09 19:25:13;;;;;;;371.40;66.77;;;2.30;99.90;;;;;;5093833;28;20545;-66
2022/12/09 19:27:40;;;;;;;203.00;55.73;;;2.20;99.90;;;;;;5085839;28;20684;-68
2022/12/09 19:30:08;;;;;;;335.20;73.50;;;2.20;99.90;;;;;;5087309;28;20560;-66
2022/12/09 19:32:35;;;;;;;337.63;66.80;;;2.20;99.90;;;;;;5094754;28;20204;-66
2022/12/09 19:35:03;;;;;;;212.33;56.40;;;2.20;99.90;;;;;;5074937;28;20208;-65
2022/12/09 19:37:30;;;;;;;446.13;72.60;;;2.30;99.90;;;;;;5086818;28;20204;-66
2022/12/09 19:39:57;;;;;;;177.23;52.67;;;2.30;99.90;;;;;;5094735;28;20254;-65
2022/12/09 19:42:23;;;;;;;286.40;63.20;;;2.30;99.90;;;;;;5075111;28;20197;-67
2022/12/09 19:44:50;;;;;;;264.10;61.33;;;2.30;99.90;;;;;;5074464;28;20559;-67
2022/12/09 19:47:17;;;;;;;382.43;71.70;;;2.30;99.90;;;;;;5094361;28;20230;-68
2022/12/09 19:49:44;;;;;;;318.03;71.73;;;2.20;99.90;;;;;;5094290;28;20310;-67
2022/12/09 19:52:12;;;;;;;220.87;59.83;;;2.20;99.90;;;;;;5094336;28;20482;-66
2022/12/09 19:54:39;;;;;;;243.27;65.10;;;2.20;99.90;;;;;;5094004;28;20211;-66
2022/12/09 19:57:06;;;;;;;544.17;85.83;;;2.20;99.90;;;;;;5094161;28;20702;-67
2022/12/09 19:59:34;;;;;;;646.33;95.10;;;2.20;99.90;;;;;;5092571;28;20560;-67
2022/12/09 20:02:01;;;;;;;246.97;61.03;;;2.20;99.90;;;;;;5098072;28;20200;-68
2022/12/09 20:04:30;;;;;;;156.60;53.17;;;2.20;99.90;;;;;;5092855;28;20265;-67
2022/12/09 20:06:57;;;;;;;363.83;106.80;;;2.20;99.90;;;;;;5103742;28;20677;-68
2022/12/09 20:09:25;;;;;;;250.03;67.83;;;2.20;99.90;;;;;;5097082;28;20253;-69
2022/12/09 20:11:53;;;;;;;223.27;60.47;;;2.20;99.90;;;;;;5093240;28;20204;-66
2022/12/09 20:14:20;;;;;;;188.83;57.07;;;2.20;99.90;;;;;;5092596;28;20200;-66
2022/12/09 20:16:47;;;;;;;274.73;66.50;;;2.20;99.90;;;;;;5093571;28;20204;-66
2022/12/09 20:19:13;;;;;;;359.20;76.83;;;2.20;99.90;;;;;;5107688;28;20209;-67
2022/12/09 20:21:40;;;;;;;598.57;95.93;;;2.20;99.90;;;;;;5113616;28;20209;-66
2022/12/09 20:24:09;;;;;;;204.27;60.57;;;2.20;99.90;;;;;;5113260;28;20203;-67
2022/12/09 20:26:38;;;;;;;190.87;59.10;;;2.20;99.90;;;;;;5104548;28;20222;-67
2022/12/09 20:29:07;;;;;;;348.20;75.57;;;2.20;99.90;;;;;;5091798;28;20259;-66
2022/12/09 20:31:36;;;;;;;521.87;90.67;;;2.20;99.90;;;;;;5091607;28;20202;-67
2022/12/09 20:34:05;;;;;;;266.13;66.43;;;2.20;99.90;;;;;;5093347;28;20212;-66
2022/12/09 20:36:34;;;;;;;227.47;66.53;;;2.20;99.90;;;;;;5098372;28;20192;-66
2022/12/09 20:39:02;;;;;;;175.17;59.83;;;2.20;99.90;;;;;;5093259;28;20211;-68
2022/12/09 20:41:29;;;;;;;475.27;88.23;;;2.20;99.90;;;;;;5093248;28;20207;-69
2022/12/09 20:43:58;;;;;;;239.80;65.40;;;2.10;99.90;;;;;;5093236;28;20223;-67
2022/12/09 20:46:27;;;;;;;208.37;64.57;;;2.10;99.90;;;;;;5092602;28;20215;-67
2022/12/09 20:48:54;;;;;;;134.13;50.77;;;2.10;99.90;;;;;;5093172;28;20241;-67
2022/12/09 20:51:23;;;;;;;166.23;58.23;;;2.10;99.90;;;;;;5092736;28;20210;-67
2022/12/09 20:53:52;;;;;;;129.57;52.97;;;2.10;99.90;;;;;;5092857;28;20816;-67
2022/12/09 20:56:20;;;;;;;120.83;50.70;;;2.20;99.90;;;;;;5092669;28;20628;-68
2022/12/09 20:58:48;;;;;;;108.83;47.53;;;2.20;99.90;;;;;;5093155;28;20222;-69
2022/12/09 21:01:18;;;;;;;175.13;57.53;;;2.30;99.90;;;;;;5092570;28;20659;-66
2022/12/09 21:03:46;;;;;;;136.00;53.63;;;2.30;99.90;;;;;;5092166;28;20633;-66
2022/12/09 21:06:14;;;;;;;188.17;58.23;;;2.30;99.90;;;;;;5090684;28;20240;-67
2022/12/09 21:08:41;;;;;;;130.80;49.30;;;2.30;99.90;;;;;;5091395;28;20224;-70
2022/12/09 21:11:10;;;;;;;133.73;49.20;;;2.30;99.90;;;;;;5098220;28;20659;-69
2022/12/09 21:13:39;;;;;;;134.87;52.40;;;2.20;99.90;;;;;;5113082;28;20229;-66
2022/12/09 21:16:08;;;;;;;157.03;51.93;;;2.20;99.90;;;;;;5112311;28;20302;-66
2022/12/09 21:18:37;;;;;;;107.23;44.80;;;2.20;99.90;;;;;;5111202;28;20562;-66
2022/12/09 21:21:04;;;;;;;122.53;49.00;;;2.20;99.90;;;;;;5091559;28;20207;-71
2022/12/09 21:23:32;;;;;;;121.50;49.53;;;2.30;99.90;;;;;;5091477;28;20207;-67
2022/12/09 21:26:04;;;;;;;173.27;57.23;;;2.30;99.90;;;;;;5091949;28;20218;-68
2022/12/09 21:28:31;;;;;;;137.53;53.37;;;2.30;99.90;;;;;;5091566;28;20583;-69
2022/12/09 21:30:58;;;;;;;115.13;48.20;;;2.30;99.90;;;;;;5090213;28;20227;-68
2022/12/09 21:33:24;;;;;;;107.13;46.23;;;2.30;99.90;;;;;;5089399;28;20204;-67
2022/12/09 21:35:52;;;;;;;114.80;47.80;;;2.30;99.90;;;;;;5078862;28;20216;-71
2022/12/09 21:38:19;;;;;;;115.63;47.13;;;2.30;99.90;;;;;;5082975;28;20200;-68
2022/12/09 21:40:46;;;;;;;176.37;57.30;;;2.30;99.90;;;;;;5072111;28;20204;-67
2022/12/09 21:43:13;;;;;;;112.37;45.90;;;2.30;99.90;;;;;;5087666;28;20574;-69
2022/12/09 21:45:39;;;;;;;148.93;53.70;;;2.30;99.90;;;;;;5082397;28;20593;-70
2022/12/09 21:48:07;;;;;;;114.03;47.33;;;2.30;99.90;;;;;;5076852;28;20216;-68
2022/12/09 21:50:34;;;;;;;124.73;45.37;;;2.30;99.90;;;;;;5082031;28;20226;-68
2022/12/09 21:53:02;;;;;;;148.13;51.53;;;2.30;99.90;;;;;;5089498;28;20211;-70
2022/12/09 21:55:29;;;;;;;142.40;52.13;;;2.30;99.90;;;;;;5083145;28;20287;-67
2022/12/09 21:57:56;;;;;;;112.03;46.67;;;2.30;99.90;;;;;;5085736;28;20207;-67
2022/12/09 22:00:23;;;;;;;102.40;45.07;;;2.30;99.90;;;;;;5086925;28;20204;-69
2022/12/09 22:02:51;;;;;;;156.83;52.93;;;2.30;99.90;;;;;;5089945;28;20226;-68
2022/12/09 22:05:18;;;;;;;98.33;41.80;;;2.30;99.90;;;;;;5089842;28;20200;-67
2022/12/09 22:07:48;;;;;;;118.93;45.33;;;2.30;99.90;;;;;;5091113;28;20234;-66
2022/12/09 22:10:16;;;;;;;105.90;43.73;;;2.30;99.90;;;;;;5091109;28;20384;-65
2022/12/09 22:12:43;;;;;;;96.90;41.03;;;2.30;99.90;;;;;;5096363;28;20208;-65
2022/12/09 22:15:10;;;;;;;108.73;43.50;;;2.30;99.90;;;;;;5092883;28;20279;-65
2022/12/09 22:17:37;;;;;;;94.33;40.60;;;2.30;99.90;;;;;;5093318;28;20654;-67
2022/12/09 22:20:06;;;;;;;81.07;39.03;;;2.30;99.90;;;;;;5087918;28;20200;-65
2022/12/09 22:22:33;;;;;;;102.03;39.20;;;2.30;99.90;;;;;;5079419;28;20231;-67
2022/12/09 22:25:00;;;;;;;78.97;36.37;;;2.30;99.90;;;;;;5081136;28;20668;-65
2022/12/09 22:27:29;;;;;;;98.40;41.57;;;2.30;99.90;;;;;;5084237;28;20587;-65
2022/12/09 22:29:55;;;;;;;99.60;42.07;;;2.30;99.90;;;;;;5085960;28;20192;-66
2022/12/09 22:32:22;;;;;;;135.00;47.20;;;2.30;99.90;;;;;;5090636;28;20203;-66
2022/12/09 22:34:49;;;;;;;105.40;41.23;;;2.30;99.90;;;;;;5091030;28;20270;-66
2022/12/09 22:37:17;;;;;;;89.80;38.20;;;2.30;99.90;;;;;;5088239;28;20200;-66
2022/12/09 22:39:44;;;;;;;108.13;42.27;;;2.30;99.90;;;;;;5081279;28;20200;-64
2022/12/09 22:42:11;;;;;;;119.53;42.53;;;2.30;99.90;;;;;;5079628;28;20204;-63
2022/12/09 22:44:40;;;;;;;118.37;44.50;;;2.30;99.90;;;;;;5090803;28;20741;-65
2022/12/09 22:47:07;;;;;;;106.33;42.90;;;2.30;99.90;;;;;;5099531;28;20572;-65
2022/12/09 22:49:34;;;;;;;110.10;41.43;;;2.30;99.90;;;;;;5111890;28;20708;-64
2022/12/09 22:52:01;;;;;;;105.50;40.87;;;2.30;99.90;;;;;;5111769;28;20226;-63
2022/12/09 22:54:28;;;;;;;94.90;40.83;;;2.30;99.90;;;;;;5113968;28;20221;-64
2022/12/09 22:56:55;;;;;;;94.87;39.03;;;2.30;99.90;;;;;;5104919;28;20648;-64
2022/12/09 22:59:21;;;;;;;86.73;36.80;;;2.30;99.90;;;;;;5094822;28;20230;-64
2022/12/09 23:01:50;;;;;;;98.70;39.70;;;2.30;99.90;;;;;;5092924;28;20582;-63
2022/12/09 23:04:20;;;;;;;93.07;38.07;;;2.30;99.90;;;;;;5079497;28;20211;-63
2022/12/09 23:06:48;;;;;;;83.83;36.50;;;2.40;99.90;;;;;;5089572;28;20211;-63
2022/12/09 23:09:18;;;;;;;96.53;39.53;;;2.40;99.90;;;;;;5094307;28;20236;-62
2022/12/09 23:11:45;;;;;;;78.80;34.67;;;2.40;99.90;;;;;;5094914;28;20203;-63
2022/12/09 23:14:12;;;;;;;170.57;49.30;;;2.40;99.90;;;;;;5094321;28;20211;-63
2022/12/09 23:16:39;;;;;;;116.60;42.03;;;2.40;99.90;;;;;;5094705;28;20214;-64
2022/12/09 23:19:07;;;;;;;133.87;44.10;;;2.40;99.90;;;;;;5094315;28;20197;-64
2022/12/09 23:21:36;;;;;;;137.03;43.87;;;2.30;99.90;;;;;;5094895;28;20210;-64
2022/12/09 23:24:05;;;;;;;81.70;35.83;;;2.30;99.90;;;;;;5094783;28;20232;-63
2022/12/09 23:26:35;;;;;;;93.63;37.90;;;2.30;99.90;;;;;;5094915;28;20590;-63
2022/12/09 23:29:04;;;;;;;90.73;38.57;;;2.30;99.90;;;;;;5094559;28;20251;-63
2022/12/09 23:31:33;;;;;;;142.37;44.87;;;2.30;99.90;;;;;;5089203;28;20206;-63
2022/12/09 23:34:00;;;;;;;99.03;40.03;;;2.30;99.90;;;;;;5088914;28;20286;-63
2022/12/09 23:36:31;;;;;;;96.57;38.70;;;2.30;99.90;;;;;;5094112;28;20208;-62